Fort Belvoir, Virginia
Current Conditions -  °F | °C
As of 2:58 PM on Tuesday 25 Nov 2014 (Local Time) from KDAA Reporting Station
Clear Clear  
Wind Chill: 56°   Ceiling: Unl
Heat Index: 56°   Visibility: 10mi
Dew Point: 33°   Wind: 2mph
Humidity: 42%   Direction: 310°NW
Pressure: 30.04"   Gusts: NA
Location:  38.69°N, 77.14°W
Report Text: KDAA 251958Z AUTO 31002KT 10SM CLR 14/01 A3004 RMK AO2 SLP176 T01350008
Loading
Personal Weather Stations






























Interactive Weather Map New forecast layout! Learn more

10-Day Weather Forecast

Advertisements
Track Severe Weather on mobile